sensor_id;sensor_type;location;lat;lon;timestamp;pressure;altitude;pressure_sealevel;temperature;humidity
6506;BME280;3286;49.858;8.768;2023-05-23T00:00:37;99010.47;;;21.26;56.33
6506;BME280;3286;49.858;8.768;2023-05-23T00:03:04;99007.34;;;20.92;57.03
6506;BME280;3286;49.858;8.768;2023-05-23T00:05:30;99006.38;;;21.23;56.27
6506;BME280;3286;49.858;8.768;2023-05-23T00:07:57;99003.78;;;20.73;57.35
6506;BME280;3286;49.858;8.768;2023-05-23T00:10:23;99010.56;;;21.01;56.88
6506;BME280;3286;49.858;8.768;2023-05-23T00:12:51;99007.06;;;21.19;56.17
6506;BME280;3286;49.858;8.768;2023-05-23T00:15:18;99014.22;;;21.06;56.32
6506;BME280;3286;49.858;8.768;2023-05-23T00:17:45;99008.34;;;20.72;57.43
6506;BME280;3286;49.858;8.768;2023-05-23T00:20:12;99014.91;;;20.76;57.28
6506;BME280;3286;49.858;8.768;2023-05-23T00:22:39;99017.78;;;20.81;57.13
6506;BME280;3286;49.858;8.768;2023-05-23T00:25:07;99023.56;;;20.78;57.20
6506;BME280;3286;49.858;8.768;2023-05-23T00:27:34;99014.72;;;20.52;58.02
6506;BME280;3286;49.858;8.768;2023-05-23T00:30:03;99023.44;;;20.92;56.76
6506;BME280;3286;49.858;8.768;2023-05-23T00:32:29;99023.09;;;20.63;57.48
6506;BME280;3286;49.858;8.768;2023-05-23T00:34:56;99017.13;;;20.86;56.70
6506;BME280;3286;49.858;8.768;2023-05-23T00:37:23;99023.41;;;20.73;56.96
6506;BME280;3286;49.858;8.768;2023-05-23T00:39:49;99022.75;;;20.52;57.72
6506;BME280;3286;49.858;8.768;2023-05-23T00:42:16;99016.88;;;20.44;57.61
6506;BME280;3286;49.858;8.768;2023-05-23T00:44:42;99023.47;;;20.66;57.14
6506;BME280;3286;49.858;8.768;2023-05-23T00:47:10;99026.72;;;20.50;57.61
6506;BME280;3286;49.858;8.768;2023-05-23T00:49:38;99014.81;;;20.64;57.03
6506;BME280;3286;49.858;8.768;2023-05-23T00:52:05;99028.06;;;20.59;57.17
6506;BME280;3286;49.858;8.768;2023-05-23T00:54:32;99024.63;;;20.52;57.41
6506;BME280;3286;49.858;8.768;2023-05-23T00:57:00;99020.16;;;20.46;57.47
6506;BME280;3286;49.858;8.768;2023-05-23T00:59:26;99025.59;;;20.58;56.70
6506;BME280;3286;49.858;8.768;2023-05-23T01:01:55;99027.69;;;20.55;56.73
6506;BME280;3286;49.858;8.768;2023-05-23T01:04:24;99028.13;;;20.52;57.00
6506;BME280;3286;49.858;8.768;2023-05-23T01:06:53;99041.97;;;20.49;56.64
6506;BME280;3286;49.858;8.768;2023-05-23T01:09:20;99037.63;;;20.55;56.18
6506;BME280;3286;49.858;8.768;2023-05-23T01:11:54;99040.34;;;20.48;56.46
6506;BME280;3286;49.858;8.768;2023-05-23T01:14:29;99051.94;;;20.42;56.88
6506;BME280;3286;49.858;8.768;2023-05-23T01:17:00;99045.25;;;20.51;56.40
6506;BME280;3286;49.858;8.768;2023-05-23T01:19:45;99041.97;;;20.49;56.79
6506;BME280;3286;49.858;8.768;2023-05-23T01:22:20;99043.78;;;20.30;57.06
6506;BME280;3286;49.858;8.768;2023-05-23T01:24:54;99035.81;;;20.23;57.59
6506;BME280;3286;49.858;8.768;2023-05-23T01:29:59;99054.81;;;20.15;57.32
6506;BME280;3286;49.858;8.768;2023-05-23T01:32:27;99048.34;;;20.30;57.00
6506;BME280;3286;49.858;8.768;2023-05-23T01:34:55;99052.59;;;20.37;56.88
6506;BME280;3286;49.858;8.768;2023-05-23T01:37:22;99045.19;;;20.07;57.57
6506;BME280;3286;49.858;8.768;2023-05-23T01:39:48;99052.38;;;20.14;57.22
6506;BME280;3286;49.858;8.768;2023-05-23T01:42:15;99053.84;;;20.09;57.53
6506;BME280;3286;49.858;8.768;2023-05-23T01:44:43;99056.38;;;19.97;57.21
6506;BME280;3286;49.858;8.768;2023-05-23T01:47:12;99057.44;;;19.96;56.62
6506;BME280;3286;49.858;8.768;2023-05-23T01:49:40;99061.41;;;19.80;57.41
6506;BME280;3286;49.858;8.768;2023-05-23T01:52:09;99057.94;;;19.73;57.73
6506;BME280;3286;49.858;8.768;2023-05-23T01:54:36;99064.69;;;19.82;57.69
6506;BME280;3286;49.858;8.768;2023-05-23T01:57:03;99058.94;;;20.18;56.34
6506;BME280;3286;49.858;8.768;2023-05-23T01:59:30;99056.41;;;19.91;57.42
6506;BME280;3286;49.858;8.768;2023-05-23T02:01:57;99063.81;;;19.50;58.81
6506;BME280;3286;49.858;8.768;2023-05-23T02:04:26;99060.44;;;20.07;56.82
6506;BME280;3286;49.858;8.768;2023-05-23T02:06:53;99058.09;;;19.85;57.04
6506;BME280;3286;49.858;8.768;2023-05-23T02:09:20;99057.91;;;19.80;57.36
6506;BME280;3286;49.858;8.768;2023-05-23T02:11:46;99062.03;;;19.76;57.69
6506;BME280;3286;49.858;8.768;2023-05-23T02:14:13;99059.31;;;19.82;57.47
6506;BME280;3286;49.858;8.768;2023-05-23T02:16:39;99064.84;;;19.88;57.05
6506;BME280;3286;49.858;8.768;2023-05-23T02:19:06;99071.91;;;19.82;57.00
6506;BME280;3286;49.858;8.768;2023-05-23T02:21:34;99075.91;;;19.66;57.48
6506;BME280;3286;49.858;8.768;2023-05-23T02:24:00;99077.50;;;19.74;57.10
6506;BME280;3286;49.858;8.768;2023-05-23T02:26:27;99077.38;;;19.62;57.64
6506;BME280;3286;49.858;8.768;2023-05-23T02:28:53;99078.19;;;19.55;58.46
6506;BME280;3286;49.858;8.768;2023-05-23T02:31:20;99083.84;;;19.34;59.51
6506;BME280;3286;49.858;8.768;2023-05-23T02:33:47;99078.31;;;19.81;58.00
6506;BME280;3286;49.858;8.768;2023-05-23T02:36:14;99081.00;;;19.81;58.07
6506;BME280;3286;49.858;8.768;2023-05-23T02:38:42;99074.00;;;19.80;58.08
6506;BME280;3286;49.858;8.768;2023-05-23T02:41:08;99089.59;;;19.90;58.07
6506;BME280;3286;49.858;8.768;2023-05-23T02:43:35;99093.13;;;19.83;57.88
6506;BME280;3286;49.858;8.768;2023-05-23T02:46:02;99091.09;;;19.79;58.00
6506;BME280;3286;49.858;8.768;2023-05-23T02:48:28;99097.53;;;19.64;58.44
6506;BME280;3286;49.858;8.768;2023-05-23T02:50:55;99102.78;;;19.39;58.71
6506;BME280;3286;49.858;8.768;2023-05-23T02:53:21;99099.34;;;19.84;57.86
6506;BME280;3286;49.858;8.768;2023-05-23T02:55:49;99105.00;;;19.55;58.10
6506;BME280;3286;49.858;8.768;2023-05-23T02:58:16;99106.00;;;19.61;57.76
6506;BME280;3286;49.858;8.768;2023-05-23T03:00:43;99110.63;;;19.34;58.77
6506;BME280;3286;49.858;8.768;2023-05-23T03:03:09;99107.75;;;19.88;57.63
6506;BME280;3286;49.858;8.768;2023-05-23T03:05:36;99111.72;;;19.72;58.14
6506;BME280;3286;49.858;8.768;2023-05-23T03:08:03;99109.72;;;19.67;57.83
6506;BME280;3286;49.858;8.768;2023-05-23T03:10:30;99110.00;;;19.97;57.03
6506;BME280;3286;49.858;8.768;2023-05-23T03:12:58;99111.47;;;19.87;57.29
6506;BME280;3286;49.858;8.768;2023-05-23T03:15:25;99115.91;;;19.61;57.75
6506;BME280;3286;49.858;8.768;2023-05-23T03:17:52;99112.31;;;19.80;57.56
6506;BME280;3286;49.858;8.768;2023-05-23T03:20:18;99116.97;;;19.46;57.81
6506;BME280;3286;49.858;8.768;2023-05-23T03:22:45;99111.97;;;19.63;57.18
6506;BME280;3286;49.858;8.768;2023-05-23T03:25:14;99113.69;;;19.51;58.14
6506;BME280;3286;49.858;8.768;2023-05-23T03:27:41;99116.75;;;19.54;57.53
6506;BME280;3286;49.858;8.768;2023-05-23T03:30:09;99119.00;;;19.58;57.43
6506;BME280;3286;49.858;8.768;2023-05-23T03:32:36;99115.50;;;19.64;56.98
6506;BME280;3286;49.858;8.768;2023-05-23T03:35:03;99122.72;;;19.57;57.03
6506;BME280;3286;49.858;8.768;2023-05-23T03:37:30;99123.19;;;19.33;57.76
6506;BME280;3286;49.858;8.768;2023-05-23T03:39:56;99120.97;;;19.23;57.77
6506;BME280;3286;49.858;8.768;2023-05-23T03:42:23;99123.19;;;19.33;57.94
6506;BME280;3286;49.858;8.768;2023-05-23T03:44:49;99125.19;;;19.58;57.29
6506;BME280;3286;49.858;8.768;2023-05-23T03:47:17;99125.84;;;19.47;57.18
6506;BME280;3286;49.858;8.768;2023-05-23T03:49:44;99126.66;;;19.47;56.93
6506;BME280;3286;49.858;8.768;2023-05-23T03:52:11;99121.31;;;19.47;56.56
6506;BME280;3286;49.858;8.768;2023-05-23T03:54:37;99132.09;;;19.20;57.00
6506;BME280;3286;49.858;8.768;2023-05-23T03:57:04;99128.78;;;19.25;56.65
6506;BME280;3286;49.858;8.768;2023-05-23T03:59:31;99132.44;;;19.37;56.08
6506;BME280;3286;49.858;8.768;2023-05-23T04:01:57;99137.81;;;19.37;56.35
6506;BME280;3286;49.858;8.768;2023-05-23T04:04:26;99148.75;;;18.75;57.79
6506;BME280;3286;49.858;8.768;2023-05-23T04:06:53;99153.28;;;18.88;58.15
6506;BME280;3286;49.858;8.768;2023-05-23T04:09:20;99151.19;;;19.37;55.94
6506;BME280;3286;49.858;8.768;2023-05-23T04:11:47;99154.91;;;19.36;55.51
6506;BME280;3286;49.858;8.768;2023-05-23T04:14:13;99155.75;;;18.90;56.14
6506;BME280;3286;49.858;8.768;2023-05-23T04:16:40;99165.22;;;18.59;57.09
6506;BME280;3286;49.858;8.768;2023-05-23T04:19:08;99166.41;;;17.87;58.94
6506;BME280;3286;49.858;8.768;2023-05-23T04:21:37;99169.69;;;18.38;57.79
6506;BME280;3286;49.858;8.768;2023-05-23T04:24:05;99171.75;;;18.49;57.71
6506;BME280;3286;49.858;8.768;2023-05-23T04:26:32;99176.88;;;17.82;58.63
6506;BME280;3286;49.858;8.768;2023-05-23T04:29:00;99174.38;;;17.80;59.20
6506;BME280;3286;49.858;8.768;2023-05-23T04:31:27;99185.56;;;18.39;57.80
6506;BME280;3286;49.858;8.768;2023-05-23T04:33:54;99187.16;;;18.34;57.81
6506;BME280;3286;49.858;8.768;2023-05-23T04:36:22;99183.81;;;17.41;60.04
6506;BME280;3286;49.858;8.768;2023-05-23T04:38:51;99188.78;;;17.44;59.15
6506;BME280;3286;49.858;8.768;2023-05-23T04:41:18;99179.38;;;17.20;59.59
6506;BME280;3286;49.858;8.768;2023-05-23T04:43:47;99188.25;;;17.27;59.52
6506;BME280;3286;49.858;8.768;2023-05-23T04:46:19;99182.63;;;17.44;59.27
6506;BME280;3286;49.858;8.768;2023-05-23T04:48:50;99185.03;;;17.67;58.12
6506;BME280;3286;49.858;8.768;2023-05-23T04:51:17;99199.66;;;17.78;58.03
6506;BME280;3286;49.858;8.768;2023-05-23T04:53:45;99198.50;;;17.94;57.64
6506;BME280;3286;49.858;8.768;2023-05-23T04:56:14;99201.72;;;17.47;58.17
6506;BME280;3286;49.858;8.768;2023-05-23T04:58:42;99207.94;;;17.90;57.15
6506;BME280;3286;49.858;8.768;2023-05-23T05:01:09;99210.59;;;17.83;57.77
6506;BME280;3286;49.858;8.768;2023-05-23T05:03:36;99209.31;;;18.14;56.82
6506;BME280;3286;49.858;8.768;2023-05-23T05:06:03;99212.47;;;17.89;56.61
6506;BME280;3286;49.858;8.768;2023-05-23T05:08:30;99211.84;;;17.87;57.16
6506;BME280;3286;49.858;8.768;2023-05-23T05:10:56;99209.22;;;17.59;56.94
6506;BME280;3286;49.858;8.768;2023-05-23T05:13:24;99210.41;;;17.91;56.04
6506;BME280;3286;49.858;8.768;2023-05-23T05:15:51;99222.19;;;17.69;56.94
6506;BME280;3286;49.858;8.768;2023-05-23T05:18:18;99225.81;;;17.54;56.98
6506;BME280;3286;49.858;8.768;2023-05-23T05:20:44;99225.09;;;18.02;56.13
6506;BME280;3286;49.858;8.768;2023-05-23T05:23:11;99226.13;;;17.73;56.89
6506;BME280;3286;49.858;8.768;2023-05-23T05:25:38;99229.44;;;18.03;55.96
6506;BME280;3286;49.858;8.768;2023-05-23T05:28:05;99230.56;;;17.94;56.14
6506;BME280;3286;49.858;8.768;2023-05-23T05:30:33;99233.28;;;18.43;54.96
6506;BME280;3286;49.858;8.768;2023-05-23T05:33:00;99237.50;;;17.81;55.86
6506;BME280;3286;49.858;8.768;2023-05-23T05:35:29;99241.50;;;17.64;56.20
6506;BME280;3286;49.858;8.768;2023-05-23T05:37:55;99243.56;;;17.97;55.78
6506;BME280;3286;49.858;8.768;2023-05-23T05:40:22;99247.59;;;17.29;56.76
6506;BME280;3286;49.858;8.768;2023-05-23T05:42:49;99243.44;;;17.77;55.93
6506;BME280;3286;49.858;8.768;2023-05-23T05:45:15;99240.84;;;18.32;54.92
6506;BME280;3286;49.858;8.768;2023-05-23T05:47:43;99250.00;;;18.09;55.47
6506;BME280;3286;49.858;8.768;2023-05-23T05:50:10;99250.72;;;17.96;55.33
6506;BME280;3286;49.858;8.768;2023-05-23T05:52:38;99253.69;;;17.73;56.20
6506;BME280;3286;49.858;8.768;2023-05-23T05:55:05;99260.75;;;18.16;55.00
6506;BME280;3286;49.858;8.768;2023-05-23T05:57:32;99257.38;;;18.01;55.24
6506;BME280;3286;49.858;8.768;2023-05-23T05:59:59;99266.59;;;17.41;56.95
6506;BME280;3286;49.858;8.768;2023-05-23T06:02:25;99263.28;;;17.67;56.24
6506;BME280;3286;49.858;8.768;2023-05-23T06:04:53;99267.72;;;17.53;56.11
6506;BME280;3286;49.858;8.768;2023-05-23T06:07:20;99269.34;;;18.12;55.10
6506;BME280;3286;49.858;8.768;2023-05-23T06:09:46;99272.06;;;18.18;54.52
6506;BME280;3286;49.858;8.768;2023-05-23T06:12:13;99272.66;;;18.14;54.86
6506;BME280;3286;49.858;8.768;2023-05-23T06:14:39;99272.59;;;18.07;54.88
6506;BME280;3286;49.858;8.768;2023-05-23T06:17:06;99282.41;;;18.00;54.53
6506;BME280;3286;49.858;8.768;2023-05-23T06:19:33;99276.88;;;17.66;55.72
6506;BME280;3286;49.858;8.768;2023-05-23T06:22:01;99285.06;;;17.36;56.06
6506;BME280;3286;49.858;8.768;2023-05-23T06:24:28;99294.00;;;17.50;56.55
6506;BME280;3286;49.858;8.768;2023-05-23T06:26:54;99287.44;;;17.81;55.06
6506;BME280;3286;49.858;8.768;2023-05-23T06:29:21;99289.03;;;17.75;56.12
6506;BME280;3286;49.858;8.768;2023-05-23T06:31:48;99301.13;;;18.00;55.74
6506;BME280;3286;49.858;8.768;2023-05-23T06:34:15;99297.94;;;17.54;56.04
6506;BME280;3286;49.858;8.768;2023-05-23T06:36:41;99303.03;;;17.77;55.62
6506;BME280;3286;49.858;8.768;2023-05-23T06:39:09;99295.03;;;17.77;55.95
6506;BME280;3286;49.858;8.768;2023-05-23T06:41:38;99295.03;;;18.48;54.02
6506;BME280;3286;49.858;8.768;2023-05-23T06:44:04;99299.00;;;18.17;55.02
6506;BME280;3286;49.858;8.768;2023-05-23T06:46:31;99302.56;;;18.31;54.45
6506;BME280;3286;49.858;8.768;2023-05-23T06:48:58;99309.94;;;18.29;54.60
6506;BME280;3286;49.858;8.768;2023-05-23T06:51:24;99298.72;;;18.47;53.80
6506;BME280;3286;49.858;8.768;2023-05-23T06:53:51;99313.03;;;18.32;54.35
6506;BME280;3286;49.858;8.768;2023-05-23T06:56:19;99303.88;;;18.13;54.86
6506;BME280;3286;49.858;8.768;2023-05-23T06:58:46;99306.72;;;18.40;54.10
6506;BME280;3286;49.858;8.768;2023-05-23T07:01:13;99307.38;;;18.49;53.50
6506;BME280;3286;49.858;8.768;2023-05-23T07:03:39;99297.38;;;18.85;52.56
6506;BME280;3286;49.858;8.768;2023-05-23T07:06:08;99310.81;;;18.91;52.44
6506;BME280;3286;49.858;8.768;2023-05-23T07:08:35;99302.84;;;19.18;51.85
6506;BME280;3286;49.858;8.768;2023-05-23T07:11:02;99308.88;;;18.72;52.57
6506;BME280;3286;49.858;8.768;2023-05-23T07:13:30;99302.53;;;18.79;51.93
6506;BME280;3286;49.858;8.768;2023-05-23T07:15:57;99309.84;;;19.46;49.85
6506;BME280;3286;49.858;8.768;2023-05-23T07:18:24;99300.38;;;19.17;50.79
6506;BME280;3286;49.858;8.768;2023-05-23T07:20:50;99306.34;;;19.39;50.44
6506;BME280;3286;49.858;8.768;2023-05-23T07:23:17;99308.19;;;19.11;51.75
6506;BME280;3286;49.858;8.768;2023-05-23T07:25:44;99310.88;;;19.65;49.97
6506;BME280;3286;49.858;8.768;2023-05-23T07:28:11;99310.69;;;19.47;50.56
6506;BME280;3286;49.858;8.768;2023-05-23T07:30:40;99317.06;;;19.86;50.23
6506;BME280;3286;49.858;8.768;2023-05-23T07:33:06;99313.56;;;19.52;50.52
6506;BME280;3286;49.858;8.768;2023-05-23T07:35:33;99317.28;;;19.64;50.61
6506;BME280;3286;49.858;8.768;2023-05-23T07:38:00;99313.16;;;19.68;50.21
6506;BME280;3286;49.858;8.768;2023-05-23T07:40:26;99312.75;;;19.65;49.87
6506;BME280;3286;49.858;8.768;2023-05-23T07:42:53;99286.75;;;19.86;48.23
6506;BME280;3286;49.858;8.768;2023-05-23T07:45:20;99289.44;;;20.58;47.25
6506;BME280;3286;49.858;8.768;2023-05-23T07:47:48;99276.97;;;21.09;45.92
6506;BME280;3286;49.858;8.768;2023-05-23T07:50:14;99276.50;;;21.45;45.42
6506;BME280;3286;49.858;8.768;2023-05-23T07:52:41;99280.59;;;21.22;45.51
6506;BME280;3286;49.858;8.768;2023-05-23T07:55:08;99290.25;;;19.86;48.05
6506;BME280;3286;49.858;8.768;2023-05-23T07:57:35;99284.06;;;20.58;46.25
6506;BME280;3286;49.858;8.768;2023-05-23T08:00:02;99282.19;;;21.30;44.89
6506;BME280;3286;49.858;8.768;2023-05-23T08:02:29;99288.75;;;21.66;43.81
6506;BME280;3286;49.858;8.768;2023-05-23T08:04:57;99283.16;;;21.61;42.48
6506;BME280;3286;49.858;8.768;2023-05-23T08:07:23;99285.22;;;21.40;42.64
6506;BME280;3286;49.858;8.768;2023-05-23T08:09:50;99282.94;;;21.11;44.76
6506;BME280;3286;49.858;8.768;2023-05-23T08:12:17;99288.69;;;21.40;43.16
6506;BME280;3286;49.858;8.768;2023-05-23T08:14:43;99300.50;;;20.68;45.43
6506;BME280;3286;49.858;8.768;2023-05-23T08:17:11;99305.78;;;20.50;45.18
6506;BME280;3286;49.858;8.768;2023-05-23T08:19:38;99306.53;;;20.64;45.72
6506;BME280;3286;49.858;8.768;2023-05-23T08:22:07;99314.19;;;20.60;46.08
6506;BME280;3286;49.858;8.768;2023-05-23T08:24:34;99319.53;;;20.01;47.35
6506;BME280;3286;49.858;8.768;2023-05-23T08:27:00;99319.97;;;19.91;48.80
6506;BME280;3286;49.858;8.768;2023-05-23T08:29:27;99321.41;;;19.67;48.16
6506;BME280;3286;49.858;8.768;2023-05-23T08:31:54;99321.41;;;19.53;48.07
6506;BME280;3286;49.858;8.768;2023-05-23T08:34:20;99324.69;;;19.89;47.37
6506;BME280;3286;49.858;8.768;2023-05-23T08:36:47;99320.25;;;20.42;47.23
6506;BME280;3286;49.858;8.768;2023-05-23T08:39:15;99315.41;;;19.31;48.51
6506;BME280;3286;49.858;8.768;2023-05-23T08:41:41;99315.59;;;20.04;47.99
6506;BME280;3286;49.858;8.768;2023-05-23T08:44:08;99315.41;;;19.72;48.03
6506;BME280;3286;49.858;8.768;2023-05-23T08:46:38;99317.50;;;19.43;49.19
6506;BME280;3286;49.858;8.768;2023-05-23T08:49:06;99320.56;;;19.46;49.81
6506;BME280;3286;49.858;8.768;2023-05-23T08:51:33;99317.28;;;19.91;49.37
6506;BME280;3286;49.858;8.768;2023-05-23T08:54:01;99318.09;;;20.58;47.94
6506;BME280;3286;49.858;8.768;2023-05-23T08:56:30;99308.53;;;20.30;46.88
6506;BME280;3286;49.858;8.768;2023-05-23T08:58:57;99313.91;;;20.30;47.68
6506;BME280;3286;49.858;8.768;2023-05-23T09:01:25;99320.47;;;20.34;47.39
6506;BME280;3286;49.858;8.768;2023-05-23T09:03:52;99317.84;;;20.79;47.20
6506;BME280;3286;49.858;8.768;2023-05-23T09:06:20;99322.06;;;20.48;47.15
6506;BME280;3286;49.858;8.768;2023-05-23T09:08:47;99323.25;;;19.66;48.40
6506;BME280;3286;49.858;8.768;2023-05-23T09:11:14;99336.63;;;19.13;50.38
6506;BME280;3286;49.858;8.768;2023-05-23T09:13:42;99335.19;;;19.23;49.95
6506;BME280;3286;49.858;8.768;2023-05-23T09:16:09;99324.69;;;19.96;47.71
6506;BME280;3286;49.858;8.768;2023-05-23T09:18:37;99328.19;;;19.83;47.72
6506;BME280;3286;49.858;8.768;2023-05-23T09:21:06;99333.56;;;19.76;48.70
6506;BME280;3286;49.858;8.768;2023-05-23T09:23:34;99329.59;;;20.85;46.87
6506;BME280;3286;49.858;8.768;2023-05-23T09:26:02;99326.84;;;20.92;46.85
6506;BME280;3286;49.858;8.768;2023-05-23T09:28:29;99317.63;;;20.15;47.43
6506;BME280;3286;49.858;8.768;2023-05-23T09:31:01;99329.66;;;19.72;47.81
6506;BME280;3286;49.858;8.768;2023-05-23T09:33:32;99325.25;;;20.25;47.40
6506;BME280;3286;49.858;8.768;2023-05-23T09:35:58;99330.03;;;19.76;47.90
6506;BME280;3286;49.858;8.768;2023-05-23T09:38:25;99326.94;;;19.86;48.87
6506;BME280;3286;49.858;8.768;2023-05-23T09:40:54;99335.03;;;19.92;48.13
6506;BME280;3286;49.858;8.768;2023-05-23T09:43:22;99334.38;;;19.63;49.78
6506;BME280;3286;49.858;8.768;2023-05-23T09:45:48;99335.22;;;19.57;48.15
6506;BME280;3286;49.858;8.768;2023-05-23T09:48:16;99335.78;;;20.26;47.19
6506;BME280;3286;49.858;8.768;2023-05-23T09:50:44;99326.59;;;21.00;45.78
6506;BME280;3286;49.858;8.768;2023-05-23T09:53:11;99332.13;;;20.01;47.71
6506;BME280;3286;49.858;8.768;2023-05-23T09:55:38;99329.56;;;20.33;47.59
6506;BME280;3286;49.858;8.768;2023-05-23T09:58:06;99335.59;;;19.88;48.20
6506;BME280;3286;49.858;8.768;2023-05-23T10:00:33;99328.78;;;20.25;47.42
6506;BME280;3286;49.858;8.768;2023-05-23T10:03:06;99332.81;;;20.48;46.57
6506;BME280;3286;49.858;8.768;2023-05-23T10:05:41;99334.97;;;20.12;47.29
6506;BME280;3286;49.858;8.768;2023-05-23T10:08:13;99336.94;;;20.51;46.69
6506;BME280;3286;49.858;8.768;2023-05-23T10:13:44;99342.00;;;20.07;48.47
6506;BME280;3286;49.858;8.768;2023-05-23T10:16:13;99346.53;;;19.73;48.89
6506;BME280;3286;49.858;8.768;2023-05-23T10:18:43;99352.06;;;19.24;50.04
6506;BME280;3286;49.858;8.768;2023-05-23T10:21:15;99344.22;;;19.09;50.26
6506;BME280;3286;49.858;8.768;2023-05-23T10:23:45;99345.06;;;19.09;50.30
6506;BME280;3286;49.858;8.768;2023-05-23T10:26:13;99342.03;;;19.53;49.02
6506;BME280;3286;49.858;8.768;2023-05-23T10:28:40;99340.16;;;19.94;48.27
6506;BME280;3286;49.858;8.768;2023-05-23T10:31:08;99345.75;;;19.79;48.92
6506;BME280;3286;49.858;8.768;2023-05-23T10:33:41;99345.50;;;19.74;48.84
6506;BME280;3286;49.858;8.768;2023-05-23T10:36:13;99357.06;;;20.15;48.44
6506;BME280;3286;49.858;8.768;2023-05-23T10:38:49;99341.81;;;19.95;47.79
6506;BME280;3286;49.858;8.768;2023-05-23T10:41:22;99347.97;;;19.48;49.07
6506;BME280;3286;49.858;8.768;2023-05-23T10:43:55;99361.94;;;18.61;50.90
6506;BME280;3286;49.858;8.768;2023-05-23T10:46:49;99356.84;;;20.03;48.30
6506;BME280;3286;49.858;8.768;2023-05-23T10:49:16;99355.06;;;20.62;46.80
6506;BME280;3286;49.858;8.768;2023-05-23T10:51:47;99349.16;;;20.33;47.83
6506;BME280;3286;49.858;8.768;2023-05-23T10:54:17;99345.00;;;21.03;45.75
6506;BME280;3286;49.858;8.768;2023-05-23T10:56:44;99341.00;;;22.14;44.90
6506;BME280;3286;49.858;8.768;2023-05-23T10:59:19;99346.16;;;21.39;45.70
6506;BME280;3286;49.858;8.768;2023-05-23T11:01:49;99347.13;;;21.26;46.31
6506;BME280;3286;49.858;8.768;2023-05-23T11:04:24;99344.16;;;21.60;45.53
6506;BME280;3286;49.858;8.768;2023-05-23T11:06:52;99346.41;;;21.70;44.19
6506;BME280;3286;49.858;8.768;2023-05-23T11:09:20;99343.38;;;21.27;45.59
6506;BME280;3286;49.858;8.768;2023-05-23T11:12:07;99361.38;;;20.16;47.91
6506;BME280;3286;49.858;8.768;2023-05-23T11:14:52;99365.91;;;20.22;47.84
6506;BME280;3286;49.858;8.768;2023-05-23T11:17:29;99363.03;;;19.90;48.26
6506;BME280;3286;49.858;8.768;2023-05-23T11:19:58;99366.97;;;20.01;48.61
6506;BME280;3286;49.858;8.768;2023-05-23T11:22:29;99366.78;;;19.95;48.13
6506;BME280;3286;49.858;8.768;2023-05-23T11:24:57;99362.41;;;20.15;47.59
6506;BME280;3286;49.858;8.768;2023-05-23T11:27:31;99370.22;;;20.23;47.54
6506;BME280;3286;49.858;8.768;2023-05-23T11:30:03;99357.47;;;19.58;48.43
6506;BME280;3286;49.858;8.768;2023-05-23T11:32:32;99365.28;;;20.20;47.80
6506;BME280;3286;49.858;8.768;2023-05-23T11:34:59;99355.63;;;19.85;48.19
6506;BME280;3286;49.858;8.768;2023-05-23T11:37:27;99358.50;;;19.83;48.54
6506;BME280;3286;49.858;8.768;2023-05-23T11:39:55;99356.63;;;20.18;47.84
6506;BME280;3286;49.858;8.768;2023-05-23T11:42:21;99354.56;;;21.24;45.44
6506;BME280;3286;49.858;8.768;2023-05-23T11:44:49;99345.75;;;22.56;43.98
6506;BME280;3286;49.858;8.768;2023-05-23T11:47:16;99343.91;;;21.68;43.55
6506;BME280;3286;49.858;8.768;2023-05-23T11:49:44;99349.53;;;20.96;46.09
6506;BME280;3286;49.858;8.768;2023-05-23T11:52:12;99358.09;;;20.14;46.93
6506;BME280;3286;49.858;8.768;2023-05-23T11:54:39;99355.00;;;19.83;48.01
6506;BME280;3286;49.858;8.768;2023-05-23T11:57:07;99348.19;;;19.40;48.90
6506;BME280;3286;49.858;8.768;2023-05-23T11:59:35;99360.16;;;20.11;47.82
6506;BME280;3286;49.858;8.768;2023-05-23T12:02:01;99351.50;;;20.09;47.72
6506;BME280;3286;49.858;8.768;2023-05-23T12:04:28;99356.84;;;19.76;48.17
6506;BME280;3286;49.858;8.768;2023-05-23T12:06:55;99360.16;;;19.64;48.39
6506;BME280;3286;49.858;8.768;2023-05-23T12:09:22;99359.72;;;20.21;47.68
6506;BME280;3286;49.858;8.768;2023-05-23T12:11:49;99358.09;;;19.87;49.46
6506;BME280;3286;49.858;8.768;2023-05-23T12:14:17;99355.44;;;20.00;48.93
6506;BME280;3286;49.858;8.768;2023-05-23T12:16:45;99360.75;;;21.25;45.97
6506;BME280;3286;49.858;8.768;2023-05-23T12:19:12;99357.75;;;21.08;46.75
6506;BME280;3286;49.858;8.768;2023-05-23T12:21:43;99355.69;;;20.58;48.09
6506;BME280;3286;49.858;8.768;2023-05-23T12:24:13;99363.44;;;20.07;48.48
6506;BME280;3286;49.858;8.768;2023-05-23T12:26:45;99361.16;;;19.77;49.09
6506;BME280;3286;49.858;8.768;2023-05-23T12:29:12;99354.69;;;21.62;46.27
6506;BME280;3286;49.858;8.768;2023-05-23T12:31:40;99356.09;;;22.15;45.13
6506;BME280;3286;49.858;8.768;2023-05-23T12:34:07;99362.09;;;22.36;43.38
6506;BME280;3286;49.858;8.768;2023-05-23T12:36:33;99367.84;;;21.12;46.00
6506;BME280;3286;49.858;8.768;2023-05-23T12:39:04;99353.19;;;21.40;45.90
6506;BME280;3286;49.858;8.768;2023-05-23T12:41:31;99362.75;;;22.12;44.46
6506;BME280;3286;49.858;8.768;2023-05-23T12:43:58;99358.84;;;21.64;44.25
6506;BME280;3286;49.858;8.768;2023-05-23T12:46:26;99369.09;;;21.10;46.55
6506;BME280;3286;49.858;8.768;2023-05-23T12:48:54;99368.66;;;20.81;45.91
6506;BME280;3286;49.858;8.768;2023-05-23T12:51:21;99374.03;;;20.81;46.85
6506;BME280;3286;49.858;8.768;2023-05-23T12:53:48;99365.72;;;20.76;46.73
6506;BME280;3286;49.858;8.768;2023-05-23T12:56:14;99359.16;;;21.75;44.12
6506;BME280;3286;49.858;8.768;2023-05-23T12:58:41;99361.81;;;22.25;42.01
6506;BME280;3286;49.858;8.768;2023-05-23T13:01:08;99371.09;;;20.82;45.18
6506;BME280;3286;49.858;8.768;2023-05-23T13:03:35;99356.06;;;21.46;44.80
6506;BME280;3286;49.858;8.768;2023-05-23T13:06:04;99364.00;;;20.95;45.48
6506;BME280;3286;49.858;8.768;2023-05-23T13:08:33;99365.31;;;20.00;47.52
6506;BME280;3286;49.858;8.768;2023-05-23T13:10:59;99371.09;;;19.83;48.98
6506;BME280;3286;49.858;8.768;2023-05-23T13:13:26;99357.06;;;19.81;48.60
6506;BME280;3286;49.858;8.768;2023-05-23T13:15:53;99360.81;;;19.93;48.23
6506;BME280;3286;49.858;8.768;2023-05-23T13:18:20;99359.53;;;20.09;47.48
6506;BME280;3286;49.858;8.768;2023-05-23T13:20:46;99358.13;;;18.91;49.26
6506;BME280;3286;49.858;8.768;2023-05-23T13:23:14;99363.59;;;20.39;46.68
6506;BME280;3286;49.858;8.768;2023-05-23T13:25:41;99362.69;;;20.65;46.14
6506;BME280;3286;49.858;8.768;2023-05-23T13:28:08;99364.91;;;19.62;49.58
6506;BME280;3286;49.858;8.768;2023-05-23T13:30:35;99370.81;;;19.24;49.31